sensor_id;sensor_type;location;lat;lon;timestamp;P1;durP1;ratioP1;P2;durP2;ratioP2
20639;SDS011;10479;53.524;9.846;2023-12-20T00:01:18;11.95;;;1.65;;
20639;SDS011;10479;53.524;9.846;2023-12-20T00:03:43;14.80;;;1.88;;
20639;SDS011;10479;53.524;9.846;2023-12-20T00:06:09;15.68;;;2.35;;
20639;SDS011;10479;53.524;9.846;2023-12-20T00:08:34;17.75;;;2.00;;
20639;SDS011;10479;53.524;9.846;2023-12-20T00:11:00;20.20;;;2.25;;
20639;SDS011;10479;53.524;9.846;2023-12-20T00:13:25;15.43;;;1.90;;
20639;SDS011;10479;53.524;9.846;2023-12-20T00:15:51;11.93;;;2.30;;
20639;SDS011;10479;53.524;9.846;2023-12-20T00:18:16;20.30;;;2.38;;
20639;SDS011;10479;53.524;9.846;2023-12-20T00:20:41;19.95;;;1.95;;
20639;SDS011;10479;53.524;9.846;2023-12-20T00:23:07;15.52;;;1.75;;
20639;SDS011;10479;53.524;9.846;2023-12-20T00:25:33;18.63;;;1.73;;
20639;SDS011;10479;53.524;9.846;2023-12-20T00:28:00;17.50;;;2.08;;
20639;SDS011;10479;53.524;9.846;2023-12-20T00:30:25;20.92;;;2.22;;
20639;SDS011;10479;53.524;9.846;2023-12-20T00:32:51;17.50;;;1.98;;
20639;SDS011;10479;53.524;9.846;2023-12-20T00:35:17;15.32;;;1.95;;
20639;SDS011;10479;53.524;9.846;2023-12-20T00:37:42;22.92;;;2.78;;
20639;SDS011;10479;53.524;9.846;2023-12-20T00:40:08;14.63;;;1.67;;
20639;SDS011;10479;53.524;9.846;2023-12-20T00:42:34;12.05;;;1.95;;
20639;SDS011;10479;53.524;9.846;2023-12-20T00:45:01;15.02;;;2.08;;
20639;SDS011;10479;53.524;9.846;2023-12-20T00:47:27;20.38;;;2.15;;
20639;SDS011;10479;53.524;9.846;2023-12-20T00:49:52;16.45;;;1.70;;
20639;SDS011;10479;53.524;9.846;2023-12-20T00:52:18;14.65;;;1.65;;
20639;SDS011;10479;53.524;9.846;2023-12-20T00:54:44;21.02;;;2.22;;
20639;SDS011;10479;53.524;9.846;2023-12-20T00:57:09;28.67;;;2.47;;
20639;SDS011;10479;53.524;9.846;2023-12-20T00:59:35;15.02;;;2.08;;
20639;SDS011;10479;53.524;9.846;2023-12-20T01:02:01;15.27;;;2.22;;
20639;SDS011;10479;53.524;9.846;2023-12-20T01:04:26;16.25;;;1.55;;
20639;SDS011;10479;53.524;9.846;2023-12-20T01:06:52;30.65;;;2.10;;
20639;SDS011;10479;53.524;9.846;2023-12-20T01:09:17;21.48;;;2.50;;
20639;SDS011;10479;53.524;9.846;2023-12-20T01:11:43;20.35;;;1.88;;
20639;SDS011;10479;53.524;9.846;2023-12-20T01:14:09;18.05;;;1.63;;
20639;SDS011;10479;53.524;9.846;2023-12-20T01:16:34;21.63;;;1.60;;
20639;SDS011;10479;53.524;9.846;2023-12-20T01:19:00;24.50;;;2.25;;
20639;SDS011;10479;53.524;9.846;2023-12-20T01:21:25;14.88;;;1.25;;
20639;SDS011;10479;53.524;9.846;2023-12-20T01:23:51;13.00;;;1.38;;
20639;SDS011;10479;53.524;9.846;2023-12-20T01:26:16;19.17;;;2.45;;
20639;SDS011;10479;53.524;9.846;2023-12-20T01:28:42;21.67;;;2.10;;
20639;SDS011;10479;53.524;9.846;2023-12-20T01:31:08;14.88;;;1.95;;
20639;SDS011;10479;53.524;9.846;2023-12-20T01:33:33;15.55;;;1.90;;
20639;SDS011;10479;53.524;9.846;2023-12-20T01:35:59;18.85;;;2.08;;
20639;SDS011;10479;53.524;9.846;2023-12-20T01:38:24;19.02;;;1.80;;
20639;SDS011;10479;53.524;9.846;2023-12-20T01:40:50;18.75;;;1.55;;
20639;SDS011;10479;53.524;9.846;2023-12-20T01:43:16;19.00;;;1.98;;
20639;SDS011;10479;53.524;9.846;2023-12-20T01:45:41;18.83;;;1.80;;
20639;SDS011;10479;53.524;9.846;2023-12-20T01:48:07;18.83;;;2.05;;
20639;SDS011;10479;53.524;9.846;2023-12-20T01:50:33;16.63;;;1.63;;
20639;SDS011;10479;53.524;9.846;2023-12-20T01:53:01;22.20;;;2.42;;
20639;SDS011;10479;53.524;9.846;2023-12-20T01:55:27;25.13;;;2.00;;
20639;SDS011;10479;53.524;9.846;2023-12-20T01:57:55;19.63;;;2.13;;
20639;SDS011;10479;53.524;9.846;2023-12-20T02:00:21;22.42;;;2.22;;
20639;SDS011;10479;53.524;9.846;2023-12-20T02:02:48;18.02;;;1.98;;
20639;SDS011;10479;53.524;9.846;2023-12-20T02:05:16;14.23;;;2.22;;
20639;SDS011;10479;53.524;9.846;2023-12-20T02:07:42;15.95;;;2.00;;
20639;SDS011;10479;53.524;9.846;2023-12-20T02:10:07;19.40;;;2.22;;
20639;SDS011;10479;53.524;9.846;2023-12-20T02:12:33;19.15;;;1.75;;
20639;SDS011;10479;53.524;9.846;2023-12-20T02:14:58;14.07;;;1.55;;
20639;SDS011;10479;53.524;9.846;2023-12-20T02:17:24;11.43;;;1.60;;
20639;SDS011;10479;53.524;9.846;2023-12-20T02:19:50;22.13;;;1.98;;
20639;SDS011;10479;53.524;9.846;2023-12-20T02:22:16;15.65;;;2.08;;
20639;SDS011;10479;53.524;9.846;2023-12-20T02:24:41;18.50;;;2.20;;
20639;SDS011;10479;53.524;9.846;2023-12-20T02:27:07;15.40;;;1.65;;
20639;SDS011;10479;53.524;9.846;2023-12-20T02:29:33;14.63;;;2.05;;
20639;SDS011;10479;53.524;9.846;2023-12-20T02:31:59;14.38;;;2.28;;
20639;SDS011;10479;53.524;9.846;2023-12-20T02:34:25;13.05;;;1.95;;
20639;SDS011;10479;53.524;9.846;2023-12-20T02:36:50;16.30;;;1.70;;
20639;SDS011;10479;53.524;9.846;2023-12-20T02:39:16;21.90;;;1.80;;
20639;SDS011;10479;53.524;9.846;2023-12-20T02:41:41;15.48;;;2.03;;
20639;SDS011;10479;53.524;9.846;2023-12-20T02:44:07;19.75;;;1.83;;
20639;SDS011;10479;53.524;9.846;2023-12-20T02:46:32;16.23;;;1.92;;
20639;SDS011;10479;53.524;9.846;2023-12-20T02:48:58;17.10;;;1.98;;
20639;SDS011;10479;53.524;9.846;2023-12-20T02:51:23;17.85;;;1.90;;
20639;SDS011;10479;53.524;9.846;2023-12-20T02:53:49;19.20;;;1.80;;
20639;SDS011;10479;53.524;9.846;2023-12-20T02:56:14;21.45;;;2.78;;
20639;SDS011;10479;53.524;9.846;2023-12-20T02:58:40;15.68;;;2.13;;
20639;SDS011;10479;53.524;9.846;2023-12-20T03:01:05;14.27;;;2.08;;
20639;SDS011;10479;53.524;9.846;2023-12-20T03:03:31;22.27;;;3.13;;
20639;SDS011;10479;53.524;9.846;2023-12-20T03:05:56;21.20;;;2.35;;
20639;SDS011;10479;53.524;9.846;2023-12-20T03:08:22;12.85;;;2.05;;
20639;SDS011;10479;53.524;9.846;2023-12-20T03:10:48;13.98;;;2.40;;
20639;SDS011;10479;53.524;9.846;2023-12-20T03:13:13;35.33;;;2.33;;
20639;SDS011;10479;53.524;9.846;2023-12-20T03:15:39;16.85;;;2.00;;
20639;SDS011;10479;53.524;9.846;2023-12-20T03:18:05;17.02;;;2.00;;
20639;SDS011;10479;53.524;9.846;2023-12-20T03:20:30;17.83;;;1.92;;
20639;SDS011;10479;53.524;9.846;2023-12-20T03:22:59;11.27;;;1.45;;
20639;SDS011;10479;53.524;9.846;2023-12-20T03:25:27;10.90;;;1.85;;
20639;SDS011;10479;53.524;9.846;2023-12-20T03:27:53;14.52;;;2.42;;
20639;SDS011;10479;53.524;9.846;2023-12-20T03:30:18;14.95;;;1.77;;
20639;SDS011;10479;53.524;9.846;2023-12-20T03:32:44;14.60;;;1.88;;
20639;SDS011;10479;53.524;9.846;2023-12-20T03:35:09;15.02;;;1.77;;
20639;SDS011;10479;53.524;9.846;2023-12-20T03:37:35;13.48;;;1.40;;
20639;SDS011;10479;53.524;9.846;2023-12-20T03:40:01;15.80;;;2.45;;
20639;SDS011;10479;53.524;9.846;2023-12-20T03:42:27;14.75;;;1.70;;
20639;SDS011;10479;53.524;9.846;2023-12-20T03:44:52;18.83;;;1.92;;
20639;SDS011;10479;53.524;9.846;2023-12-20T03:47:18;21.02;;;3.13;;
20639;SDS011;10479;53.524;9.846;2023-12-20T03:49:43;23.02;;;2.10;;
20639;SDS011;10479;53.524;9.846;2023-12-20T03:52:08;17.88;;;2.33;;
20639;SDS011;10479;53.524;9.846;2023-12-20T03:54:37;25.13;;;1.90;;
20639;SDS011;10479;53.524;9.846;2023-12-20T03:57:02;18.75;;;1.70;;
20639;SDS011;10479;53.524;9.846;2023-12-20T03:59:28;21.63;;;2.45;;
20639;SDS011;10479;53.524;9.846;2023-12-20T04:01:53;12.70;;;2.17;;
20639;SDS011;10479;53.524;9.846;2023-12-20T04:04:19;22.10;;;2.20;;
20639;SDS011;10479;53.524;9.846;2023-12-20T04:06:44;16.13;;;1.40;;
20639;SDS011;10479;53.524;9.846;2023-12-20T04:09:10;12.88;;;1.95;;
20639;SDS011;10479;53.524;9.846;2023-12-20T04:11:36;17.85;;;2.10;;
20639;SDS011;10479;53.524;9.846;2023-12-20T04:14:01;13.52;;;1.52;;
20639;SDS011;10479;53.524;9.846;2023-12-20T04:16:27;14.98;;;1.70;;
20639;SDS011;10479;53.524;9.846;2023-12-20T04:18:52;17.38;;;2.50;;
20639;SDS011;10479;53.524;9.846;2023-12-20T04:21:17;14.57;;;1.80;;
20639;SDS011;10479;53.524;9.846;2023-12-20T04:23:43;12.73;;;1.73;;
20639;SDS011;10479;53.524;9.846;2023-12-20T04:26:08;16.70;;;2.08;;
20639;SDS011;10479;53.524;9.846;2023-12-20T04:28:34;13.85;;;1.85;;
20639;SDS011;10479;53.524;9.846;2023-12-20T04:30:59;15.57;;;1.85;;
20639;SDS011;10479;53.524;9.846;2023-12-20T04:33:25;13.73;;;1.85;;
20639;SDS011;10479;53.524;9.846;2023-12-20T04:35:50;18.15;;;2.15;;
20639;SDS011;10479;53.524;9.846;2023-12-20T04:38:16;11.15;;;1.90;;
20639;SDS011;10479;53.524;9.846;2023-12-20T04:40:42;16.70;;;1.98;;
20639;SDS011;10479;53.524;9.846;2023-12-20T04:43:07;19.70;;;1.50;;
20639;SDS011;10479;53.524;9.846;2023-12-20T04:45:33;14.82;;;2.42;;
20639;SDS011;10479;53.524;9.846;2023-12-20T04:47:59;12.13;;;1.98;;
20639;SDS011;10479;53.524;9.846;2023-12-20T04:50:24;14.63;;;2.13;;
20639;SDS011;10479;53.524;9.846;2023-12-20T04:52:50;10.82;;;2.53;;
20639;SDS011;10479;53.524;9.846;2023-12-20T04:55:16;20.63;;;2.25;;
20639;SDS011;10479;53.524;9.846;2023-12-20T04:57:41;17.65;;;2.33;;
20639;SDS011;10479;53.524;9.846;2023-12-20T05:00:08;11.75;;;1.88;;
20639;SDS011;10479;53.524;9.846;2023-12-20T05:02:34;29.77;;;2.35;;
20639;SDS011;10479;53.524;9.846;2023-12-20T05:05:00;15.77;;;2.10;;
20639;SDS011;10479;53.524;9.846;2023-12-20T05:07:25;25.55;;;3.35;;
20639;SDS011;10479;53.524;9.846;2023-12-20T05:09:51;17.33;;;2.85;;
20639;SDS011;10479;53.524;9.846;2023-12-20T05:12:16;19.60;;;2.65;;
20639;SDS011;10479;53.524;9.846;2023-12-20T05:14:42;15.45;;;3.05;;
20639;SDS011;10479;53.524;9.846;2023-12-20T05:17:07;13.75;;;2.63;;
20639;SDS011;10479;53.524;9.846;2023-12-20T05:19:32;17.73;;;2.25;;
20639;SDS011;10479;53.524;9.846;2023-12-20T05:22:00;15.15;;;2.40;;
20639;SDS011;10479;53.524;9.846;2023-12-20T05:24:27;15.35;;;2.55;;
20639;SDS011;10479;53.524;9.846;2023-12-20T05:26:52;17.48;;;2.58;;
20639;SDS011;10479;53.524;9.846;2023-12-20T05:29:17;18.70;;;2.30;;
20639;SDS011;10479;53.524;9.846;2023-12-20T05:31:43;15.73;;;2.40;;
20639;SDS011;10479;53.524;9.846;2023-12-20T05:34:08;12.90;;;2.33;;
20639;SDS011;10479;53.524;9.846;2023-12-20T05:36:34;12.38;;;2.20;;
20639;SDS011;10479;53.524;9.846;2023-12-20T05:39:00;16.92;;;2.42;;
20639;SDS011;10479;53.524;9.846;2023-12-20T05:41:25;18.80;;;2.55;;
20639;SDS011;10479;53.524;9.846;2023-12-20T05:43:50;19.92;;;2.55;;
20639;SDS011;10479;53.524;9.846;2023-12-20T05:46:16;22.10;;;2.75;;
20639;SDS011;10479;53.524;9.846;2023-12-20T05:48:41;20.40;;;2.38;;
20639;SDS011;10479;53.524;9.846;2023-12-20T05:51:07;15.13;;;2.08;;
20639;SDS011;10479;53.524;9.846;2023-12-20T05:53:33;15.20;;;2.00;;
20639;SDS011;10479;53.524;9.846;2023-12-20T05:55:58;11.02;;;2.10;;
20639;SDS011;10479;53.524;9.846;2023-12-20T05:58:24;22.13;;;3.30;;
20639;SDS011;10479;53.524;9.846;2023-12-20T06:00:50;13.15;;;2.17;;
20639;SDS011;10479;53.524;9.846;2023-12-20T06:03:15;28.60;;;3.05;;
20639;SDS011;10479;53.524;9.846;2023-12-20T06:05:41;19.48;;;2.38;;
20639;SDS011;10479;53.524;9.846;2023-12-20T06:08:06;16.88;;;2.45;;
20639;SDS011;10479;53.524;9.846;2023-12-20T06:10:31;19.75;;;2.58;;
20639;SDS011;10479;53.524;9.846;2023-12-20T06:12:57;14.52;;;2.40;;
20639;SDS011;10479;53.524;9.846;2023-12-20T06:15:24;16.13;;;2.40;;
20639;SDS011;10479;53.524;9.846;2023-12-20T06:17:49;19.73;;;2.28;;
20639;SDS011;10479;53.524;9.846;2023-12-20T06:20:15;15.95;;;2.35;;
20639;SDS011;10479;53.524;9.846;2023-12-20T06:22:40;16.25;;;2.60;;
20639;SDS011;10479;53.524;9.846;2023-12-20T06:25:07;23.60;;;2.40;;
20639;SDS011;10479;53.524;9.846;2023-12-20T06:27:33;10.65;;;2.17;;
20639;SDS011;10479;53.524;9.846;2023-12-20T06:29:58;19.00;;;2.30;;
20639;SDS011;10479;53.524;9.846;2023-12-20T06:32:24;13.27;;;2.33;;
20639;SDS011;10479;53.524;9.846;2023-12-20T06:34:49;15.07;;;2.90;;
20639;SDS011;10479;53.524;9.846;2023-12-20T06:37:15;17.02;;;2.90;;
20639;SDS011;10479;53.524;9.846;2023-12-20T06:39:41;21.70;;;2.92;;
20639;SDS011;10479;53.524;9.846;2023-12-20T06:42:06;17.60;;;2.35;;
20639;SDS011;10479;53.524;9.846;2023-12-20T06:44:32;12.38;;;1.90;;
20639;SDS011;10479;53.524;9.846;2023-12-20T06:46:57;13.82;;;2.15;;
20639;SDS011;10479;53.524;9.846;2023-12-20T06:49:23;15.05;;;2.17;;
20639;SDS011;10479;53.524;9.846;2023-12-20T06:51:48;20.52;;;2.97;;
20639;SDS011;10479;53.524;9.846;2023-12-20T06:54:14;14.52;;;2.10;;
20639;SDS011;10479;53.524;9.846;2023-12-20T06:56:39;18.38;;;2.40;;
20639;SDS011;10479;53.524;9.846;2023-12-20T06:59:06;20.00;;;2.20;;
20639;SDS011;10479;53.524;9.846;2023-12-20T07:01:31;17.48;;;2.28;;
20639;SDS011;10479;53.524;9.846;2023-12-20T07:03:57;14.70;;;2.10;;
20639;SDS011;10479;53.524;9.846;2023-12-20T07:06:22;20.55;;;1.92;;
20639;SDS011;10479;53.524;9.846;2023-12-20T07:08:48;16.30;;;2.20;;
20639;SDS011;10479;53.524;9.846;2023-12-20T07:11:13;19.17;;;2.70;;
20639;SDS011;10479;53.524;9.846;2023-12-20T07:13:39;17.80;;;2.83;;
20639;SDS011;10479;53.524;9.846;2023-12-20T07:16:04;21.90;;;2.63;;
20639;SDS011;10479;53.524;9.846;2023-12-20T07:18:30;19.67;;;2.70;;
20639;SDS011;10479;53.524;9.846;2023-12-20T07:20:55;19.55;;;2.70;;
20639;SDS011;10479;53.524;9.846;2023-12-20T07:23:21;18.67;;;3.83;;
20639;SDS011;10479;53.524;9.846;2023-12-20T07:25:46;28.42;;;2.60;;
20639;SDS011;10479;53.524;9.846;2023-12-20T07:28:12;19.08;;;2.83;;
20639;SDS011;10479;53.524;9.846;2023-12-20T07:30:38;21.88;;;2.42;;
20639;SDS011;10479;53.524;9.846;2023-12-20T07:33:03;21.88;;;2.88;;
20639;SDS011;10479;53.524;9.846;2023-12-20T07:35:29;23.10;;;2.83;;
20639;SDS011;10479;53.524;9.846;2023-12-20T07:37:54;26.38;;;2.83;;
20639;SDS011;10479;53.524;9.846;2023-12-20T07:40:20;21.98;;;2.67;;
20639;SDS011;10479;53.524;9.846;2023-12-20T07:42:45;19.90;;;3.38;;
20639;SDS011;10479;53.524;9.846;2023-12-20T07:45:10;18.08;;;2.88;;
20639;SDS011;10479;53.524;9.846;2023-12-20T07:47:36;22.55;;;2.85;;
20639;SDS011;10479;53.524;9.846;2023-12-20T07:50:02;18.33;;;2.40;;
20639;SDS011;10479;53.524;9.846;2023-12-20T07:52:28;23.85;;;3.95;;
20639;SDS011;10479;53.524;9.846;2023-12-20T07:54:54;16.38;;;2.15;;
20639;SDS011;10479;53.524;9.846;2023-12-20T07:57:20;15.20;;;2.40;;
20639;SDS011;10479;53.524;9.846;2023-12-20T07:59:46;17.20;;;3.20;;
20639;SDS011;10479;53.524;9.846;2023-12-20T08:02:11;25.65;;;2.55;;
20639;SDS011;10479;53.524;9.846;2023-12-20T08:04:37;17.52;;;2.63;;
20639;SDS011;10479;53.524;9.846;2023-12-20T08:07:03;23.15;;;2.78;;
20639;SDS011;10479;53.524;9.846;2023-12-20T08:09:29;22.25;;;3.22;;
20639;SDS011;10479;53.524;9.846;2023-12-20T08:11:54;26.33;;;2.47;;
20639;SDS011;10479;53.524;9.846;2023-12-20T08:14:20;24.00;;;3.40;;
20639;SDS011;10479;53.524;9.846;2023-12-20T08:16:46;18.98;;;2.22;;
20639;SDS011;10479;53.524;9.846;2023-12-20T08:19:12;23.15;;;2.63;;
20639;SDS011;10479;53.524;9.846;2023-12-20T08:21:38;17.75;;;2.28;;
20639;SDS011;10479;53.524;9.846;2023-12-20T08:24:04;19.33;;;2.53;;
20639;SDS011;10479;53.524;9.846;2023-12-20T08:26:30;20.40;;;2.90;;
20639;SDS011;10479;53.524;9.846;2023-12-20T08:28:55;21.73;;;2.65;;
20639;SDS011;10479;53.524;9.846;2023-12-20T08:31:21;18.23;;;2.33;;
20639;SDS011;10479;53.524;9.846;2023-12-20T08:33:47;19.33;;;2.78;;
20639;SDS011;10479;53.524;9.846;2023-12-20T08:36:13;22.65;;;3.30;;
20639;SDS011;10479;53.524;9.846;2023-12-20T08:38:38;20.00;;;2.25;;
20639;SDS011;10479;53.524;9.846;2023-12-20T08:41:04;27.67;;;2.75;;
20639;SDS011;10479;53.524;9.846;2023-12-20T08:43:33;23.58;;;2.55;;
20639;SDS011;10479;53.524;9.846;2023-12-20T08:46:00;20.60;;;2.58;;
20639;SDS011;10479;53.524;9.846;2023-12-20T08:48:28;21.27;;;2.40;;
20639;SDS011;10479;53.524;9.846;2023-12-20T08:50:54;20.52;;;2.67;;
20639;SDS011;10479;53.524;9.846;2023-12-20T08:53:19;16.73;;;3.00;;
20639;SDS011;10479;53.524;9.846;2023-12-20T08:55:45;14.82;;;2.40;;
20639;SDS011;10479;53.524;9.846;2023-12-20T08:58:10;15.23;;;2.20;;
20639;SDS011;10479;53.524;9.846;2023-12-20T09:00:36;13.55;;;2.20;;
20639;SDS011;10479;53.524;9.846;2023-12-20T09:03:02;13.07;;;2.53;;
20639;SDS011;10479;53.524;9.846;2023-12-20T09:05:27;13.18;;;2.33;;
20639;SDS011;10479;53.524;9.846;2023-12-20T09:07:53;16.40;;;1.65;;
20639;SDS011;10479;53.524;9.846;2023-12-20T09:10:19;21.75;;;2.28;;
20639;SDS011;10479;53.524;9.846;2023-12-20T09:12:50;11.35;;;2.03;;
20639;SDS011;10479;53.524;9.846;2023-12-20T09:15:19;11.67;;;2.00;;
20639;SDS011;10479;53.524;9.846;2023-12-20T09:17:44;11.63;;;2.08;;
20639;SDS011;10479;53.524;9.846;2023-12-20T09:20:10;20.08;;;1.70;;
20639;SDS011;10479;53.524;9.846;2023-12-20T09:22:35;6.72;;;1.30;;
20639;SDS011;10479;53.524;9.846;2023-12-20T09:25:03;6.18;;;1.42;;
20639;SDS011;10479;53.524;9.846;2023-12-20T09:27:29;4.85;;;0.77;;
20639;SDS011;10479;53.524;9.846;2023-12-20T09:29:55;8.00;;;0.98;;
20639;SDS011;10479;53.524;9.846;2023-12-20T09:32:20;3.78;;;0.65;;
20639;SDS011;10479;53.524;9.846;2023-12-20T09:34:47;9.63;;;1.00;;
20639;SDS011;10479;53.524;9.846;2023-12-20T09:37:13;3.35;;;0.88;;
20639;SDS011;10479;53.524;9.846;2023-12-20T09:39:38;3.65;;;0.60;;
20639;SDS011;10479;53.524;9.846;2023-12-20T09:42:04;4.07;;;0.50;;
20639;SDS011;10479;53.524;9.846;2023-12-20T09:44:33;3.63;;;0.50;;
20639;SDS011;10479;53.524;9.846;2023-12-20T09:47:02;0.90;;;0.20;;
20639;SDS011;10479;53.524;9.846;2023-12-20T09:49:29;3.55;;;0.47;;
20639;SDS011;10479;53.524;9.846;2023-12-20T09:51:55;5.55;;;0.30;;
20639;SDS011;10479;53.524;9.846;2023-12-20T09:54:21;3.95;;;0.32;;
20639;SDS011;10479;53.524;9.846;2023-12-20T09:56:47;3.13;;;0.50;;
20639;SDS011;10479;53.524;9.846;2023-12-20T09:59:13;2.38;;;0.45;;
20639;SDS011;10479;53.524;9.846;2023-12-20T10:01:42;1.80;;;0.30;;
20639;SDS011;10479;53.524;9.846;2023-12-20T10:04:08;4.10;;;0.22;;
20639;SDS011;10479;53.524;9.846;2023-12-20T10:06:43;2.72;;;0.55;;
20639;SDS011;10479;53.524;9.846;2023-12-20T10:09:09;1.65;;;0.20;;
20639;SDS011;10479;53.524;9.846;2023-12-20T10:11:38;3.63;;;0.35;;
20639;SDS011;10479;53.524;9.846;2023-12-20T10:14:05;2.00;;;0.30;;
20639;SDS011;10479;53.524;9.846;2023-12-20T10:16:31;3.38;;;0.22;;
20639;SDS011;10479;53.524;9.846;2023-12-20T10:18:57;4.30;;;0.35;;
20639;SDS011;10479;53.524;9.846;2023-12-20T10:21:23;5.50;;;0.68;;
20639;SDS011;10479;53.524;9.846;2023-12-20T10:23:51;7.38;;;0.47;;
20639;SDS011;10479;53.524;9.846;2023-12-20T10:26:23;6.15;;;0.50;;
20639;SDS011;10479;53.524;9.846;2023-12-20T10:28:53;1.92;;;0.25;;
20639;SDS011;10479;53.524;9.846;2023-12-20T10:31:30;5.60;;;0.85;;
20639;SDS011;10479;53.524;9.846;2023-12-20T10:33:59;4.45;;;0.43;;
20639;SDS011;10479;53.524;9.846;2023-12-20T10:36:26;7.13;;;0.50;;
20639;SDS011;10479;53.524;9.846;2023-12-20T10:38:53;7.07;;;0.60;;
20639;SDS011;10479;53.524;9.846;2023-12-20T10:41:28;4.95;;;0.70;;
20639;SDS011;10479;53.524;9.846;2023-12-20T10:44:04;9.75;;;0.90;;
20639;SDS011;10479;53.524;9.846;2023-12-20T10:46:32;2.47;;;0.38;;
20639;SDS011;10479;53.524;9.846;2023-12-20T10:48:59;10.48;;;0.77;;
20639;SDS011;10479;53.524;9.846;2023-12-20T10:51:25;4.68;;;0.63;;
20639;SDS011;10479;53.524;9.846;2023-12-20T10:53:55;10.63;;;1.15;;
20639;SDS011;10479;53.524;9.846;2023-12-20T10:56:21;9.27;;;0.80;;
20639;SDS011;10479;53.524;9.846;2023-12-20T10:58:48;7.20;;;0.85;;
20639;SDS011;10479;53.524;9.846;2023-12-20T11:01:15;5.65;;;0.80;;
20639;SDS011;10479;53.524;9.846;2023-12-20T11:03:45;3.30;;;0.40;;
20639;SDS011;10479;53.524;9.846;2023-12-20T11:09:29;8.35;;;1.33;;
20639;SDS011;10479;53.524;9.846;2023-12-20T11:14:54;9.15;;;0.93;;
20639;SDS011;10479;53.524;9.846;2023-12-20T11:17:27;10.25;;;1.00;;
20639;SDS011;10479;53.524;9.846;2023-12-20T11:22:20;12.80;;;1.48;;
20639;SDS011;10479;53.524;9.846;2023-12-20T11:24:46;12.73;;;1.10;;
20639;SDS011;10479;53.524;9.846;2023-12-20T11:27:13;14.52;;;1.42;;
20639;SDS011;10479;53.524;9.846;2023-12-20T11:29:38;13.05;;;1.30;;
20639;SDS011;10479;53.524;9.846;2023-12-20T11:34:50;12.82;;;2.10;;
20639;SDS011;10479;53.524;9.846;2023-12-20T11:37:19;19.05;;;1.48;;
20639;SDS011;10479;53.524;9.846;2023-12-20T11:39:45;17.83;;;1.50;;
20639;SDS011;10479;53.524;9.846;2023-12-20T11:42:10;9.98;;;1.23;;
20639;SDS011;10479;53.524;9.846;2023-12-20T11:44:36;15.05;;;1.70;;
20639;SDS011;10479;53.524;9.846;2023-12-20T11:47:02;17.08;;;1.63;;
20639;SDS011;10479;53.524;9.846;2023-12-20T11:49:28;13.68;;;1.58;;
20639;SDS011;10479;53.524;9.846;2023-12-20T11:51:56;9.13;;;1.73;;
20639;SDS011;10479;53.524;9.846;2023-12-20T11:54:22;18.70;;;1.50;;
20639;SDS011;10479;53.524;9.846;2023-12-20T11:56:48;14.00;;;1.45;;
20639;SDS011;10479;53.524;9.846;2023-12-20T11:59:13;16.67;;;1.80;;
20639;SDS011;10479;53.524;9.846;2023-12-20T12:01:40;14.70;;;1.50;;
20639;SDS011;10479;53.524;9.846;2023-12-20T12:04:06;12.85;;;1.55;;
20639;SDS011;10479;53.524;9.846;2023-12-20T12:06:32;12.98;;;1.50;;
20639;SDS011;10479;53.524;9.846;2023-12-20T12:08:57;11.15;;;1.38;;
20639;SDS011;10479;53.524;9.846;2023-12-20T12:11:23;10.82;;;1.50;;
20639;SDS011;10479;53.524;9.846;2023-12-20T12:13:48;15.48;;;2.05;;
20639;SDS011;10479;53.524;9.846;2023-12-20T12:16:17;18.50;;;2.30;;
20639;SDS011;10479;53.524;9.846;2023-12-20T12:18:44;15.20;;;1.88;;
20639;SDS011;10479;53.524;9.846;2023-12-20T12:21:10;9.82;;;1.75;;
20639;SDS011;10479;53.524;9.846;2023-12-20T12:23:35;15.50;;;1.77;;
20639;SDS011;10479;53.524;9.846;2023-12-20T12:26:03;12.88;;;1.38;;
20639;SDS011;10479;53.524;9.846;2023-12-20T12:28:29;13.70;;;2.25;;
20639;SDS011;10479;53.524;9.846;2023-12-20T12:31:00;10.48;;;1.42;;
20639;SDS011;10479;53.524;9.846;2023-12-20T12:33:25;16.20;;;2.70;;
20639;SDS011;10479;53.524;9.846;2023-12-20T12:35:51;10.15;;;1.60;;
20639;SDS011;10479;53.524;9.846;2023-12-20T12:38:19;13.50;;;1.60;;
20639;SDS011;10479;53.524;9.846;2023-12-20T12:40:46;12.93;;;2.13;;
20639;SDS011;10479;53.524;9.846;2023-12-20T12:43:11;10.05;;;1.77;;
20639;SDS011;10479;53.524;9.846;2023-12-20T12:45:37;11.10;;;1.33;;
20639;SDS011;10479;53.524;9.846;2023-12-20T12:48:03;15.98;;;2.03;;
20639;SDS011;10479;53.524;9.846;2023-12-20T12:50:30;15.75;;;2.00;;
20639;SDS011;10479;53.524;9.846;2023-12-20T12:52:55;11.15;;;1.75;;
20639;SDS011;10479;53.524;9.846;2023-12-20T12:55:21;11.35;;;1.70;;
20639;SDS011;10479;53.524;9.846;2023-12-20T12:57:46;13.27;;;2.03;;
20639;SDS011;10479;53.524;9.846;2023-12-20T13:00:12;21.50;;;1.83;;
20639;SDS011;10479;53.524;9.846;2023-12-20T13:02:38;17.40;;;1.60;;
20639;SDS011;10479;53.524;9.846;2023-12-20T13:05:07;14.05;;;2.03;;
20639;SDS011;10479;53.524;9.846;2023-12-20T13:07:33;18.40;;;2.17;;
20639;SDS011;10479;53.524;9.846;2023-12-20T13:09:58;13.55;;;1.92;;
20639;SDS011;10479;53.524;9.846;2023-12-20T13:12:25;11.27;;;2.55;;
20639;SDS011;10479;53.524;9.846;2023-12-20T13:14:51;21.45;;;1.85;;
20639;SDS011;10479;53.524;9.846;2023-12-20T13:17:16;16.33;;;1.80;;
20639;SDS011;10479;53.524;9.846;2023-12-20T13:19:42;18.70;;;2.55;;
20639;SDS011;10479;53.524;9.846;2023-12-20T13:22:07;19.13;;;2.45;;
20639;SDS011;10479;53.524;9.846;2023-12-20T13:24:33;15.27;;;1.92;;
20639;SDS011;10479;53.524;9.846;2023-12-20T13:26:59;20.88;;;2.60;;
20639;SDS011;10479;53.524;9.846;2023-12-20T13:29:25;16.90;;;2.38;;
20639;SDS011;10479;53.524;9.846;2023-12-20T13:31:53;16.45;;;2.03;;
20639;SDS011;10479;53.524;9.846;2023-12-20T13:34:18;25.60;;;3.03;;
20639;SDS011;10479;53.524;9.846;2023-12-20T13:36:44;17.48;;;2.90;;
20639;SDS011;10479;53.524;9.846;2023-12-20T13:39:15;19.33;;;2.85;;
20639;SDS011;10479;53.524;9.846;2023-12-20T13:41:40;26.52;;;3.15;;
20639;SDS011;10479;53.524;9.846;2023-12-20T13:44:05;22.52;;;2.55;;
20639;SDS011;10479;53.524;9.846;2023-12-20T13:46:31;21.38;;;2.65;;
20639;SDS011;10479;53.524;9.846;2023-12-20T13:48:57;28.75;;;3.10;;
20639;SDS011;10479;53.524;9.846;2023-12-20T13:51:22;30.17;;;4.60;;
20639;SDS011;10479;53.524;9.846;2023-12-20T13:53:48;31.92;;;3.85;;
20639;SDS011;10479;53.524;9.846;2023-12-20T13:56:14;21.27;;;3.80;;
20639;SDS011;10479;53.524;9.846;2023-12-20T13:58:40;14.68;;;2.72;;
20639;SDS011;10479;53.524;9.846;2023-12-20T14:01:06;26.58;;;3.38;;
20639;SDS011;10479;53.524;9.846;2023-12-20T14:03:33;27.65;;;3.35;;
20639;SDS011;10479;53.524;9.846;2023-12-20T14:05:59;19.02;;;3.28;;
20639;SDS011;10479;53.524;9.846;2023-12-20T14:08:26;23.73;;;3.33;;
20639;SDS011;10479;53.524;9.846;2023-12-20T14:10:52;19.52;;;3.00;;
20639;SDS011;10479;53.524;9.846;2023-12-20T14:13:17;28.80;;;3.67;;
20639;SDS011;10479;53.524;9.846;2023-12-20T14:15:43;27.90;;;3.90;;
20639;SDS011;10479;53.524;9.846;2023-12-20T14:18:09;25.10;;;3.70;;
20639;SDS011;10479;53.524;9.846;2023-12-20T14:20:35;21.83;;;3.40;;
20639;SDS011;10479;53.524;9.846;2023-12-20T14:23:01;21.00;;;2.90;;
20639;SDS011;10479;53.524;9.846;2023-12-20T14:25:27;23.73;;;3.78;;
20639;SDS011;10479;53.524;9.846;2023-12-20T14:27:52;24.08;;;3.35;;
20639;SDS011;10479;53.524;9.846;2023-12-20T14:30:18;21.80;;;3.35;;
20639;SDS011;10479;53.524;9.846;2023-12-20T14:32:43;19.88;;;3.25;;
20639;SDS011;10479;53.524;9.846;2023-12-20T14:35:09;24.50;;;3.40;;
20639;SDS011;10479;53.524;9.846;2023-12-20T14:37:35;28.83;;;2.85;;
20639;SDS011;10479;53.524;9.846;2023-12-20T14:40:04;27.52;;;4.57;;